createdAt,value
2024-05-09T00:01:44.171Z,64.95
2024-05-09T00:04:14.258Z,65.80
2024-05-09T00:06:44.299Z,60.83
2024-05-09T00:09:17.059Z,65.80
2024-05-09T00:11:47.185Z,59.77
2024-05-09T00:14:17.308Z,64.03
2024-05-09T00:16:48.618Z,63.28
2024-05-09T00:19:18.791Z,64.80
2024-05-09T00:21:48.916Z,65.15
2024-05-09T00:24:21.662Z,60.92
2024-05-09T00:26:51.797Z,65.33
2024-05-09T00:29:21.992Z,61.67
2024-05-09T00:31:52.316Z,58.65
2024-05-09T00:34:22.464Z,67.10
2024-05-09T00:36:52.918Z,65.50
2024-05-09T00:39:25.541Z,73.38
2024-05-09T00:41:55.608Z,73.68
2024-05-09T00:44:25.646Z,74.10
2024-05-09T00:46:56.440Z,72.70
2024-05-09T00:49:28.094Z,75.88
2024-05-09T00:51:59.852Z,79.35
2024-05-09T00:54:33.856Z,80.18
2024-05-09T00:57:05.884Z,82.22
2024-05-09T00:59:36.573Z,80.18
2024-05-09T01:02:07.184Z,80.57
2024-05-09T01:04:37.337Z,81.15
2024-05-09T01:07:07.722Z,81.65
2024-05-09T01:09:41.652Z,75.50
2024-05-09T01:12:11.983Z,77.90
2024-05-09T01:14:42.250Z,76.53
2024-05-09T01:17:12.466Z,81.65
2024-05-09T01:19:42.944Z,86.20
2024-05-09T01:22:13.014Z,84.05
2024-05-09T01:24:45.735Z,82.88
2024-05-09T01:27:15.851Z,79.47
2024-05-09T01:29:45.820Z,77.88
2024-05-09T01:32:16.474Z,92.53
2024-05-09T01:34:46.535Z,89.45
2024-05-09T01:37:16.796Z,93.03
2024-05-09T01:39:49.441Z,100.43
2024-05-09T01:42:19.504Z,97.57
2024-05-09T01:44:49.473Z,99.10
2024-05-09T01:47:19.738Z,107.47
2024-05-09T01:49:49.821Z,98.78
2024-05-09T01:52:19.920Z,99.05
2024-05-09T01:54:52.605Z,102.65
2024-05-09T01:57:22.590Z,109.07
2024-05-09T01:59:52.810Z,108.45
2024-05-09T02:02:22.929Z,106.55
2024-05-09T02:04:53.257Z,106.72
2024-05-09T02:07:23.261Z,102.57
2024-05-09T02:09:57.595Z,102.20
2024-05-09T02:12:27.672Z,95.88
2024-05-09T02:14:58.446Z,106.00
2024-05-09T02:17:28.784Z,109.97
2024-05-09T02:19:59.472Z,101.60
2024-05-09T02:22:29.462Z,98.97
2024-05-09T02:25:02.947Z,98.32
2024-05-09T02:27:32.880Z,106.05
2024-05-09T02:30:07.757Z,106.88
2024-05-09T02:32:42.161Z,106.43
2024-05-09T02:35:12.467Z,105.97
2024-05-09T02:37:39.847Z,103.43
2024-05-09T02:40:15.013Z,110.40
2024-05-09T02:42:48.670Z,100.00
2024-05-09T02:45:19.063Z,114.95
2024-05-09T02:47:46.557Z,108.03
2024-05-09T02:50:25.966Z,108.70
2024-05-09T02:52:58.001Z,105.47
2024-05-09T02:55:30.767Z,125.55
2024-05-09T02:57:58.152Z,118.60
2024-05-09T03:00:36.770Z,137.90
2024-05-09T03:03:09.554Z,117.40
2024-05-09T03:05:41.748Z,124.32
2024-05-09T03:08:09.821Z,123.78
2024-05-09T03:10:42.906Z,129.25
2024-05-09T03:13:13.516Z,123.05
2024-05-09T03:15:45.709Z,130.60
2024-05-09T03:18:13.728Z,134.70
2024-05-09T03:20:44.796Z,130.18
2024-05-09T03:23:12.891Z,119.53
2024-05-09T03:25:46.133Z,137.35
2024-05-09T03:28:13.608Z,131.80
2024-05-09T03:30:43.736Z,153.40
2024-05-09T03:33:11.637Z,151.48
2024-05-09T03:35:42.219Z,140.68
2024-05-09T03:38:12.736Z,137.32
2024-05-09T03:40:51.367Z,136.07
2024-05-09T03:43:21.990Z,133.80
2024-05-09T03:45:53.172Z,134.85
2024-05-09T03:48:21.221Z,137.18
2024-05-09T03:50:51.633Z,134.85
2024-05-09T03:53:19.579Z,135.10
2024-05-09T03:55:52.677Z,138.10
2024-05-09T03:58:20.125Z,160.95
2024-05-09T04:00:50.226Z,127.90
2024-05-09T04:03:17.950Z,143.73
2024-05-09T04:05:48.212Z,125.85
2024-05-09T04:08:16.092Z,138.98
2024-05-09T04:10:46.457Z,124.43
2024-05-09T04:13:16.503Z,116.93
2024-05-09T04:15:46.690Z,131.35
2024-05-09T04:18:14.145Z,127.55
2024-05-09T04:20:44.120Z,125.72
2024-05-09T04:23:13.626Z,125.82
2024-05-09T04:25:45.818Z,134.05
2024-05-09T04:28:16.686Z,133.77
2024-05-09T04:30:46.650Z,134.85
2024-05-09T04:33:15.470Z,129.32
2024-05-09T04:35:46.073Z,120.80
2024-05-09T04:38:14.573Z,118.47
2024-05-09T04:40:45.798Z,114.40
2024-05-09T04:43:20.585Z,124.30
2024-05-09T04:45:50.561Z,115.45
2024-05-09T04:48:18.249Z,110.47
2024-05-09T04:50:48.404Z,124.15
2024-05-09T04:53:16.768Z,115.18
2024-05-09T04:55:47.321Z,108.40
2024-05-09T04:58:14.763Z,121.00
2024-05-09T05:00:47.828Z,128.57
2024-05-09T05:03:16.353Z,124.32
2024-05-09T05:05:47.183Z,111.32
2024-05-09T05:08:15.884Z,115.78
2024-05-09T05:10:48.097Z,108.47
2024-05-09T05:13:18.216Z,101.57
2024-05-09T05:15:53.598Z,126.10
2024-05-09T05:18:22.450Z,117.38
2024-05-09T05:20:52.801Z,117.65
2024-05-09T05:23:21.186Z,121.60
2024-05-09T05:25:53.200Z,122.35
2024-05-09T05:28:21.480Z,124.47
2024-05-09T05:30:54.447Z,117.18
2024-05-09T05:33:23.009Z,109.25
2024-05-09T05:35:53.524Z,106.07
2024-05-09T05:38:24.855Z,100.70
2024-05-09T05:40:57.459Z,96.63
2024-05-09T05:43:24.985Z,103.82
2024-05-09T05:45:57.975Z,95.95
2024-05-09T05:48:25.459Z,109.30
2024-05-09T05:50:56.000Z,109.00
2024-05-09T05:53:23.428Z,124.30
2024-05-09T05:55:53.536Z,99.65
2024-05-09T05:58:21.692Z,113.10
2024-05-09T06:00:53.535Z,113.30
2024-05-09T06:03:23.946Z,114.47
2024-05-09T06:05:54.054Z,103.35
2024-05-09T06:08:21.906Z,109.05
2024-05-09T06:10:52.338Z,111.30
2024-05-09T06:13:20.621Z,111.97
2024-05-09T06:15:50.658Z,117.85
2024-05-09T06:18:18.387Z,113.07
2024-05-09T06:20:51.282Z,112.63
2024-05-09T06:23:18.781Z,112.20
2024-05-09T06:25:49.058Z,119.25
2024-05-09T06:28:16.419Z,94.50
2024-05-09T06:30:46.598Z,92.95
2024-05-09T06:33:15.836Z,96.43
2024-05-09T06:35:47.145Z,96.30
2024-05-09T06:38:17.334Z,103.55
2024-05-09T06:40:47.375Z,96.25
2024-05-09T06:43:17.145Z,93.00
2024-05-09T06:45:49.300Z,88.10
2024-05-09T06:48:19.180Z,91.43
2024-05-09T06:50:49.876Z,99.07
2024-05-09T06:53:22.374Z,88.57
2024-05-09T06:55:52.878Z,93.45
2024-05-09T06:58:20.505Z,91.07
2024-05-09T07:00:50.590Z,86.03
2024-05-09T07:03:19.418Z,85.45
2024-05-09T07:05:50.378Z,87.15
2024-05-09T07:08:20.509Z,88.20
2024-05-09T07:10:51.128Z,87.38
2024-05-09T07:13:18.611Z,87.10
2024-05-09T07:15:48.559Z,89.53
2024-05-09T07:18:18.448Z,82.53
2024-05-09T07:20:50.380Z,83.18
2024-05-09T07:23:20.941Z,75.85
2024-05-09T07:25:51.143Z,74.93
2024-05-09T07:28:20.665Z,69.32
2024-05-09T07:30:50.743Z,65.97
2024-05-09T07:33:19.797Z,65.70
2024-05-09T07:35:50.773Z,64.60
2024-05-09T07:38:21.121Z,72.53
2024-05-09T07:40:51.272Z,66.78
2024-05-09T07:43:18.698Z,59.05
2024-05-09T07:45:53.705Z,59.90
2024-05-09T07:53:40.515Z,58.03
2024-05-09T07:58:43.860Z,61.47
2024-05-09T08:01:14.080Z,59.30
2024-05-09T08:03:42.210Z,62.55
2024-05-09T08:06:12.543Z,64.03
2024-05-09T08:08:46.306Z,63.80
2024-05-09T08:11:16.568Z,63.92
2024-05-09T08:13:44.044Z,57.80
2024-05-09T08:16:14.292Z,58.88
2024-05-09T08:18:42.500Z,61.30
2024-05-09T08:21:12.643Z,59.55
2024-05-09T08:23:42.982Z,54.95
2024-05-09T08:26:13.050Z,53.83
2024-05-09T08:28:40.342Z,55.85
2024-05-09T08:31:13.923Z,57.03
2024-05-09T08:33:44.699Z,51.38
2024-05-09T08:36:14.839Z,55.78
2024-05-09T08:38:45.111Z,49.92
2024-05-09T08:41:17.218Z,52.17
2024-05-09T08:43:44.989Z,52.05
2024-05-09T08:46:18.554Z,52.00
2024-05-09T08:48:48.316Z,47.80
2024-05-09T08:51:18.556Z,49.40
2024-05-09T08:53:48.834Z,43.25
2024-05-09T08:56:19.997Z,45.22
2024-05-09T08:58:49.332Z,43.03
2024-05-09T09:01:21.068Z,46.30
2024-05-09T09:03:50.199Z,45.95
2024-05-09T09:06:24.338Z,44.97
2024-05-09T09:08:55.617Z,44.53
2024-05-09T09:11:25.819Z,43.00
2024-05-09T09:13:53.509Z,46.75
2024-05-09T09:16:33.901Z,47.55
2024-05-09T09:19:03.139Z,45.30
2024-05-09T09:21:33.387Z,49.83
2024-05-09T09:24:03.771Z,49.58
2024-05-09T09:26:33.895Z,46.20
2024-05-09T09:29:02.316Z,47.65
2024-05-09T09:31:33.562Z,49.75
2024-05-09T09:34:07.427Z,47.88
2024-05-09T09:36:41.989Z,38.63
2024-05-09T09:39:16.973Z,41.25
2024-05-09T09:41:50.562Z,37.65
2024-05-09T09:44:19.734Z,40.83
2024-05-09T09:46:50.474Z,36.17
2024-05-09T09:49:19.649Z,33.85
2024-05-09T09:51:51.089Z,37.28
2024-05-09T09:54:21.848Z,34.65
2024-05-09T09:56:54.009Z,35.67
2024-05-09T09:59:22.100Z,35.85
2024-05-09T10:01:52.246Z,38.17
2024-05-09T10:04:20.296Z,35.30
2024-05-09T10:06:54.737Z,36.35
2024-05-09T10:09:27.713Z,38.83
2024-05-09T10:11:59.983Z,36.72
2024-05-09T10:14:33.543Z,33.90
2024-05-09T10:17:05.299Z,34.10
2024-05-09T10:19:35.619Z,33.65
2024-05-09T10:22:03.846Z,36.80
2024-05-09T10:24:54.288Z,34.40
2024-05-09T10:27:28.455Z,39.53
2024-05-09T10:29:59.347Z,38.00
2024-05-09T10:32:28.924Z,37.65
2024-05-09T10:35:11.688Z,47.40
2024-05-09T10:37:39.392Z,42.27
2024-05-09T10:40:26.025Z,40.85
2024-05-09T10:43:02.586Z,38.65
2024-05-09T10:45:34.956Z,44.58
2024-05-09T10:48:02.740Z,37.63
2024-05-09T10:50:34.494Z,36.50
2024-05-09T10:53:03.163Z,41.03
2024-05-09T10:55:35.893Z,41.97
2024-05-09T10:58:03.269Z,41.58
2024-05-09T11:00:36.374Z,38.42
2024-05-09T11:03:04.890Z,39.35
2024-05-09T11:05:36.378Z,40.42
2024-05-09T11:08:04.415Z,40.15
2024-05-09T11:10:37.380Z,38.28
2024-05-09T11:13:05.079Z,42.00
2024-05-09T11:15:41.901Z,41.15
2024-05-09T11:18:24.637Z,40.50
2024-05-09T11:20:56.293Z,40.85
2024-05-09T11:23:26.188Z,39.30
2024-05-09T11:26:00.069Z,38.35
2024-05-09T11:28:28.972Z,35.63
2024-05-09T11:31:08.852Z,35.78
2024-05-09T11:33:38.328Z,33.72
2024-05-09T11:36:09.593Z,37.58
2024-05-09T11:39:05.355Z,34.00
2024-05-09T11:41:38.971Z,36.70
2024-05-09T11:44:06.711Z,37.20
2024-05-09T11:46:36.829Z,33.53
2024-05-09T11:49:04.435Z,36.67
2024-05-09T11:51:34.723Z,32.80
2024-05-09T11:54:02.352Z,33.17
2024-05-09T11:56:32.391Z,29.00
2024-05-09T11:59:03.349Z,31.98
2024-05-09T12:01:33.480Z,33.22
2024-05-09T12:04:01.377Z,32.47
2024-05-09T12:07:53.861Z,31.13
2024-05-09T12:10:32.520Z,27.33
2024-05-09T12:13:04.190Z,28.85
2024-05-09T12:15:39.223Z,33.28
2024-05-09T12:18:08.075Z,33.03
2024-05-09T12:20:40.076Z,31.63
2024-05-09T12:23:09.884Z,31.38
2024-05-09T12:25:41.286Z,31.48
2024-05-09T12:28:09.065Z,33.65
2024-05-09T12:30:42.143Z,35.28
2024-05-09T12:33:11.634Z,32.60
2024-05-09T12:35:44.330Z,35.47
2024-05-09T12:38:14.300Z,32.83
2024-05-09T12:40:44.639Z,32.75
2024-05-09T12:43:12.298Z,28.77
2024-05-09T12:45:45.483Z,30.40
2024-05-09T12:50:44.173Z,25.65
2024-05-09T12:53:11.995Z,30.88
2024-05-09T12:55:48.980Z,27.15
2024-05-09T12:58:24.637Z,29.95
2024-05-09T13:01:01.159Z,26.40
2024-05-09T13:03:28.876Z,24.33
2024-05-09T13:05:58.959Z,24.05
2024-05-09T13:08:26.395Z,22.20
2024-05-09T13:10:56.650Z,21.40
2024-05-09T13:13:24.094Z,20.40
2024-05-09T13:15:56.860Z,21.75
2024-05-09T13:18:24.295Z,18.83
2024-05-09T13:20:54.383Z,21.45
2024-05-09T13:23:21.832Z,25.08
2024-05-09T13:25:51.944Z,22.67
2024-05-09T13:28:19.474Z,39.78
2024-05-09T13:30:49.747Z,21.77
2024-05-09T13:33:19.853Z,21.90
2024-05-09T13:35:51.094Z,23.27
2024-05-09T13:38:20.169Z,23.70
2024-05-09T13:40:50.911Z,26.00
2024-05-09T13:43:19.239Z,26.95
2024-05-09T13:45:49.938Z,21.02
2024-05-09T13:48:20.433Z,19.83
2024-05-09T13:50:50.802Z,19.17
2024-05-09T13:53:18.271Z,19.60
2024-05-09T13:55:48.711Z,19.27
2024-05-09T13:58:16.529Z,20.10
2024-05-09T14:00:49.071Z,21.17
2024-05-09T14:03:21.013Z,21.27
2024-05-09T14:05:52.522Z,22.65
2024-05-09T14:08:22.532Z,20.10
2024-05-09T14:10:54.123Z,22.48
2024-05-09T14:13:21.913Z,22.95
2024-05-09T14:15:52.586Z,20.40
2024-05-09T14:18:23.199Z,20.55
2024-05-09T14:20:54.523Z,19.13
2024-05-09T14:23:23.190Z,21.00
2024-05-09T14:25:53.757Z,21.48
2024-05-09T14:28:22.579Z,22.65
2024-05-09T14:30:53.463Z,22.33
2024-05-09T14:33:26.840Z,22.30
2024-05-09T14:35:57.337Z,18.92
2024-05-09T14:38:25.259Z,20.92
2024-05-09T14:40:55.687Z,18.60
2024-05-09T14:43:23.554Z,20.48
2024-05-09T14:45:53.805Z,20.48
2024-05-09T14:48:24.249Z,21.85
2024-05-09T14:50:54.609Z,19.92
2024-05-09T14:53:23.734Z,23.15
2024-05-09T14:55:54.175Z,20.67
2024-05-09T14:58:22.015Z,23.20
2024-05-09T15:00:52.536Z,22.15
2024-05-09T15:03:21.594Z,22.10
2024-05-09T15:05:55.159Z,22.85
2024-05-09T15:08:22.703Z,19.52
2024-05-09T15:10:53.022Z,21.08
2024-05-09T15:13:25.005Z,23.45
2024-05-09T15:15:56.023Z,23.00
2024-05-09T15:18:23.586Z,25.20
2024-05-09T15:20:56.703Z,22.73
2024-05-09T15:23:24.320Z,21.58
2024-05-09T15:25:54.379Z,21.60
2024-05-09T15:28:21.974Z,21.02
2024-05-09T15:30:52.709Z,19.00
2024-05-09T15:33:20.158Z,20.20
2024-05-09T15:35:50.287Z,19.73
2024-05-09T15:38:20.686Z,19.30
2024-05-09T15:40:51.176Z,18.30
2024-05-09T15:43:18.719Z,18.67
2024-05-09T15:45:48.767Z,15.77
2024-05-09T15:48:16.443Z,16.95
2024-05-09T15:50:46.524Z,16.42
2024-05-09T15:53:14.026Z,16.27
2024-05-09T15:55:46.996Z,14.18
2024-05-09T15:58:15.203Z,17.60
2024-05-09T16:00:47.851Z,16.83
2024-05-09T16:03:17.044Z,13.55
2024-05-09T16:05:48.286Z,16.85
2024-05-09T16:08:16.492Z,17.90
2024-05-09T16:10:49.860Z,15.18
2024-05-09T16:15:49.035Z,16.33
2024-05-09T16:18:16.666Z,17.25
2024-05-09T16:20:49.477Z,16.92
2024-05-09T16:23:17.846Z,14.57
2024-05-09T16:25:51.565Z,17.00
2024-05-09T16:28:20.210Z,18.27
2024-05-09T16:30:50.970Z,17.67
2024-05-09T16:33:20.937Z,13.55
2024-05-09T16:35:51.736Z,17.95
2024-05-09T16:38:19.664Z,15.63
2024-05-09T16:40:52.930Z,18.33
2024-05-09T16:43:20.868Z,15.75
2024-05-09T16:45:51.277Z,18.60
2024-05-09T16:48:19.169Z,19.25
2024-05-09T16:50:49.376Z,15.68
2024-05-09T16:53:16.811Z,14.32
2024-05-09T16:55:46.830Z,14.25
2024-05-09T16:58:20.076Z,18.98
2024-05-09T17:03:17.782Z,16.30
2024-05-09T17:05:47.132Z,16.35
2024-05-09T17:08:19.867Z,15.88
2024-05-09T17:10:49.338Z,17.27
2024-05-09T17:13:22.917Z,16.88
2024-05-09T17:15:51.240Z,18.38
2024-05-09T17:18:21.642Z,17.55
2024-05-09T17:20:50.390Z,16.38
2024-05-09T17:23:20.642Z,15.80
2024-05-09T17:25:47.954Z,17.15
2024-05-09T17:28:18.129Z,17.90
2024-05-09T17:30:48.736Z,17.92
2024-05-09T17:33:19.153Z,17.13
2024-05-09T17:35:50.699Z,16.15
2024-05-09T17:38:23.034Z,14.90
2024-05-09T17:40:50.977Z,16.65
2024-05-09T17:43:21.482Z,16.58
2024-05-09T17:45:51.860Z,15.48
2024-05-09T17:48:22.556Z,14.65
2024-05-09T17:50:51.563Z,14.60
2024-05-09T17:53:21.710Z,15.65
2024-05-09T17:55:54.007Z,13.88
2024-05-09T17:58:21.681Z,14.13
2024-05-09T18:00:55.060Z,13.63
2024-05-09T18:03:23.509Z,13.63
2024-05-09T18:05:54.420Z,13.68
2024-05-09T18:08:21.843Z,17.17
2024-05-09T18:10:54.806Z,15.77
2024-05-09T18:13:22.946Z,17.90
2024-05-09T18:15:56.039Z,15.60
2024-05-09T18:18:23.894Z,17.88
2024-05-09T18:20:53.969Z,20.10
2024-05-09T18:23:21.390Z,37.35
2024-05-09T18:25:54.828Z,43.15
2024-05-09T18:30:55.499Z,46.22
2024-05-09T18:33:24.990Z,47.35
2024-05-09T18:35:55.429Z,49.38
2024-05-09T18:38:26.806Z,47.53
2024-05-09T18:40:56.962Z,53.53
2024-05-09T18:43:28.948Z,50.60
2024-05-09T18:46:08.937Z,52.88
2024-05-09T18:48:36.995Z,53.70
2024-05-09T18:51:08.237Z,52.17
2024-05-09T18:53:35.543Z,52.88
2024-05-09T18:56:05.847Z,50.13
2024-05-09T18:58:33.257Z,51.83
2024-05-09T19:01:04.937Z,50.22
2024-05-09T19:03:35.598Z,48.42
2024-05-09T19:06:06.109Z,50.42
2024-05-09T19:08:33.595Z,53.72
2024-05-09T19:11:03.638Z,55.47
2024-05-09T19:13:31.230Z,52.45
2024-05-09T19:16:01.751Z,54.30
2024-05-09T19:18:32.149Z,55.35
2024-05-09T19:21:02.317Z,53.90
2024-05-09T19:23:35.441Z,54.15
2024-05-09T19:26:05.672Z,53.40
2024-05-09T19:28:35.670Z,53.58
2024-05-09T19:31:03.073Z,53.00
2024-05-09T19:33:33.409Z,52.38
2024-05-09T19:36:03.650Z,54.28
2024-05-09T19:38:33.950Z,55.92
2024-05-09T19:41:01.370Z,56.65
2024-05-09T19:43:33.784Z,54.42
2024-05-09T19:46:03.023Z,54.20
2024-05-09T19:48:33.444Z,56.45
2024-05-09T19:51:03.981Z,59.88
2024-05-09T19:53:34.217Z,57.92
2024-05-09T19:56:02.095Z,54.95
2024-05-09T19:58:32.445Z,59.90
2024-05-09T20:00:59.960Z,58.88
2024-05-09T20:03:31.890Z,57.97
2024-05-09T20:05:59.472Z,54.95
2024-05-09T20:08:32.272Z,56.55
2024-05-09T20:10:59.655Z,57.92
2024-05-09T20:13:29.762Z,55.83
2024-05-09T20:15:57.281Z,56.88
2024-05-09T20:18:27.654Z,60.63
2024-05-09T20:20:55.360Z,59.35
2024-05-09T20:23:25.421Z,58.53
2024-05-09T20:25:55.383Z,63.42
2024-05-09T20:28:25.696Z,57.50
2024-05-09T20:30:53.376Z,59.55
2024-05-09T20:33:23.439Z,62.33
2024-05-09T20:35:51.789Z,59.47
2024-05-09T20:38:21.743Z,60.17
2024-05-09T20:40:49.428Z,59.78
2024-05-09T20:43:22.636Z,57.40
2024-05-09T20:45:50.235Z,60.33
2024-05-09T20:48:24.699Z,61.13
2024-05-09T20:50:52.277Z,61.60
2024-05-09T20:53:22.376Z,57.60
2024-05-09T20:55:49.801Z,59.42
2024-05-09T20:58:22.703Z,57.58
2024-05-09T21:00:50.266Z,60.97
2024-05-09T21:03:20.482Z,59.75
2024-05-09T21:05:48.590Z,59.22
2024-05-09T21:08:19.133Z,57.40
2024-05-09T21:10:46.643Z,58.63
2024-05-09T21:13:16.869Z,66.20
2024-05-09T21:15:47.158Z,62.00
2024-05-09T21:18:17.357Z,59.97
2024-05-09T21:20:44.790Z,61.00
2024-05-09T21:23:14.858Z,62.28
2024-05-09T21:25:42.185Z,64.82
2024-05-09T21:28:12.213Z,61.17
2024-05-09T21:30:42.500Z,62.33
2024-05-09T21:33:16.578Z,62.28
2024-05-09T21:35:44.707Z,66.07
2024-05-09T21:38:16.367Z,63.20
2024-05-09T21:40:44.442Z,66.22
2024-05-09T21:43:15.042Z,64.03
2024-05-09T21:45:43.532Z,65.30
2024-05-09T21:48:16.590Z,65.88
2024-05-09T21:50:44.147Z,67.68
2024-05-09T21:53:14.205Z,68.70
2024-05-09T21:55:41.893Z,68.18
2024-05-09T21:58:11.998Z,67.30
2024-05-09T22:00:40.919Z,62.63
2024-05-09T22:03:12.299Z,65.72
2024-05-09T22:05:44.565Z,67.60
2024-05-09T22:08:15.075Z,63.88
2024-05-09T22:10:42.975Z,61.47
2024-05-09T22:13:13.549Z,61.25
2024-05-09T22:15:41.477Z,68.80
2024-05-09T22:18:12.217Z,63.28
2024-05-09T22:20:45.542Z,66.18
2024-05-09T22:23:17.416Z,68.70
2024-05-09T22:25:44.979Z,67.03
2024-05-09T22:28:17.437Z,65.88
2024-05-09T22:30:47.184Z,63.65
2024-05-09T22:33:18.242Z,67.97
2024-05-09T22:35:48.382Z,69.07
2024-05-09T22:38:18.723Z,68.78
2024-05-09T22:40:49.192Z,67.13
2024-05-09T22:43:24.065Z,69.13
2024-05-09T22:45:53.062Z,68.20
2024-05-09T22:48:24.385Z,69.18
2024-05-09T22:50:55.143Z,71.05
2024-05-09T22:53:26.410Z,66.78
2024-05-09T22:55:53.764Z,69.40
2024-05-09T22:58:28.435Z,74.60
2024-05-09T23:00:56.106Z,67.78
2024-05-09T23:03:26.348Z,70.45
2024-05-09T23:05:56.611Z,71.78
2024-05-09T23:08:26.705Z,71.25
2024-05-09T23:10:54.102Z,71.60
2024-05-09T23:13:24.805Z,71.05
2024-05-09T23:15:52.175Z,78.63
2024-05-09T23:18:22.372Z,82.22
2024-05-09T23:20:50.150Z,76.18
2024-05-09T23:23:22.837Z,83.47
2024-05-09T23:25:50.465Z,79.70
2024-05-09T23:28:20.471Z,79.00
2024-05-09T23:30:47.902Z,79.97
2024-05-09T23:33:18.276Z,79.18
2024-05-09T23:35:45.704Z,80.45
2024-05-09T23:38:16.176Z,80.32
2024-05-09T23:40:46.436Z,82.07
2024-05-09T23:43:17.145Z,81.00
2024-05-09T23:45:44.972Z,83.10
2024-05-09T23:48:18.071Z,81.78
2024-05-09T23:50:45.811Z,83.32
2024-05-09T23:53:16.786Z,83.57
2024-05-09T23:55:46.798Z,82.88
2024-05-09T23:58:16.760Z,83.40
